Weather at Eppley Airfield

Public forecast

Using degrees Fahrenheit for public forecast. Weather courtesy of forecast.io.

Current aviation weather report (METAR) for Eppley Airfield

Retrieved 2021/07/24 15:52 UTC (39 minutes ago):

KOMA 241552Z 27005KT 10SM SCT090 BKN140 29/21 A2994 RMK AO2 SLP128 T02940211

Aviation forecast (TAF) for Eppley Airfield

Retrieved 2021/07/24 12:22 UTC (4 hours ago):

TAF KOMA 241120Z 2412/2512 16008KT P6SM SCT140 SCT250 FM241400 24006KT P6SM SCT250 FM241800 29006KT P6SM SCT250 FM241900 32005KT P6SM SCT250 FM242200 35006KT P6SM FEW250